Time,TemperatureF,DewpointF,PressureIn,WindDirection,WindDirectionDegrees,WindSpeedMPH,WindSpeedGustMPH,Humidity,HourlyPrecipIn,Conditions,Clouds,dailyrainin,SoftwareType,DateUTC
2013-09-11 00:02:00,49.9,46.8,29.93,SE,130,3.0,4.0,89,0.00,,---,0.00,VWS V14.01,2013-09-11 06:02:00,
2013-09-11 00:07:00,49.9,46.5,29.93,SE,130,0.0,0.0,88,0.00,,---,0.00,VWS V14.01,2013-09-11 06:07:00,
2013-09-11 00:12:00,50.1,46.7,29.93,SE,130,0.0,0.0,88,0.00,,---,0.00,VWS V14.01,2013-09-11 06:12:00,
2013-09-11 00:17:00,50.2,46.8,29.93,SE,130,0.0,0.0,88,0.00,,---,0.00,VWS V14.01,2013-09-11 06:17:00,
2013-09-11 00:22:00,50.3,46.6,29.93,SE,130,0.0,0.0,87,0.00,,---,0.00,VWS V14.01,2013-09-11 06:22:00,
2013-09-11 00:27:00,50.3,46.6,29.93,SE,130,0.0,0.0,87,0.00,,---,0.00,VWS V14.01,2013-09-11 06:27:00,
2013-09-11 00:32:00,50.4,47.0,29.94,SE,130,0.0,0.0,88,0.00,,---,0.00,VWS V14.01,2013-09-11 06:32:00,
2013-09-11 00:37:00,50.3,46.9,29.94,SE,130,0.0,0.0,88,0.00,,---,0.00,VWS V14.01,2013-09-11 06:37:00,
2013-09-11 00:42:00,50.2,47.1,29.93,SE,130,0.0,0.0,89,0.00,,---,0.00,VWS V14.01,2013-09-11 06:42:00,
2013-09-11 00:47:00,50.1,47.0,29.93,SE,130,0.0,0.0,89,0.00,,---,0.00,VWS V14.01,2013-09-11 06:47:00,
2013-09-11 00:52:00,50.0,46.9,29.93,SE,130,0.0,0.0,89,0.00,,---,0.00,VWS V14.01,2013-09-11 06:52:00,
2013-09-11 00:57:00,50.0,46.9,29.93,SE,130,0.0,0.0,89,0.00,,---,0.00,VWS V14.01,2013-09-11 06:57:00,
2013-09-11 01:02:00,49.9,46.8,29.93,SE,130,0.0,0.0,89,0.00,,---,0.00,VWS V14.01,2013-09-11 07:02:00,
2013-09-11 01:07:00,49.9,47.1,29.93,SE,130,0.0,0.0,90,0.00,,---,0.00,VWS V14.01,2013-09-11 07:07:00,
2013-09-11 01:12:00,49.9,47.4,29.93,SE,130,0.0,0.0,91,0.00,,---,0.00,VWS V14.01,2013-09-11 07:12:00,
2013-09-11 01:17:00,49.7,47.2,29.93,SE,130,3.0,3.0,91,0.00,,---,0.00,VWS V14.01,2013-09-11 07:17:00,
2013-09-11 01:22:00,49.6,47.1,29.93,SE,130,4.0,4.0,91,0.00,,---,0.00,VWS V14.01,2013-09-11 07:22:00,
2013-09-11 01:27:00,49.5,47.0,29.94,SE,130,3.0,4.0,91,0.00,,---,0.00,VWS V14.01,2013-09-11 07:27:00,
2013-09-11 01:32:00,49.5,47.0,29.93,SE,130,0.0,0.0,91,0.00,,---,0.00,VWS V14.01,2013-09-11 07:32:00,
2013-09-11 01:37:00,49.5,47.0,29.93,SE,130,4.0,5.0,91,0.00,,---,0.00,VWS V14.01,2013-09-11 07:37:00,
2013-09-11 01:42:00,49.6,47.1,29.93,SE,130,0.0,1.0,91,0.00,,---,0.00,VWS V14.01,2013-09-11 07:42:00,
2013-09-11 01:47:00,49.6,47.1,29.94,SE,130,0.0,0.0,91,0.00,,---,0.00,VWS V14.01,2013-09-11 07:47:00,
2013-09-11 01:52:00,49.7,47.2,29.93,SE,130,0.0,0.0,91,0.00,,---,0.00,VWS V14.01,2013-09-11 07:52:00,
2013-09-11 01:57:00,49.7,47.2,29.93,SE,130,0.0,0.0,91,0.00,,---,0.00,VWS V14.01,2013-09-11 07:57:00,
2013-09-11 02:02:00,49.7,47.2,29.93,SE,130,0.0,0.0,91,0.00,,---,0.00,VWS V14.01,2013-09-11 08:02:00,
2013-09-11 02:07:00,49.7,47.2,29.93,SE,130,0.0,0.0,91,0.00,,---,0.00,VWS V14.01,2013-09-11 08:07:00,
2013-09-11 02:12:00,49.7,47.2,29.93,SE,130,0.0,0.0,91,0.00,,---,0.00,VWS V14.01,2013-09-11 08:12:00,
2013-09-11 02:17:00,49.6,47.4,29.93,SE,130,0.0,0.0,92,0.00,,---,0.00,VWS V14.01,2013-09-11 08:17:00,
2013-09-11 02:23:00,49.6,47.4,29.93,SE,130,0.0,0.0,92,0.00,,---,0.00,VWS V14.01,2013-09-11 08:23:00,
2013-09-11 02:28:00,49.6,47.4,29.93,SE,130,0.0,0.0,92,0.00,,---,0.00,VWS V14.01,2013-09-11 08:28:00,
2013-09-11 02:33:00,49.6,47.4,29.93,SE,130,0.0,0.0,92,0.00,,---,0.00,VWS V14.01,2013-09-11 08:33:00,
2013-09-11 02:38:00,49.5,47.3,29.93,SE,130,1.0,2.0,92,0.01,,---,0.01,VWS V14.01,2013-09-11 08:38:00,
2013-09-11 02:43:00,49.4,47.5,29.93,SE,130,0.0,0.0,93,0.01,,---,0.01,VWS V14.01,2013-09-11 08:43:00,
2013-09-11 02:48:00,49.3,47.4,29.92,SE,130,0.0,0.0,93,0.01,,---,0.01,VWS V14.01,2013-09-11 08:48:00,
2013-09-11 02:53:00,49.2,47.3,29.92,SE,130,0.0,0.0,93,0.01,,---,0.01,VWS V14.01,2013-09-11 08:53:00,
2013-09-11 02:58:00,49.1,47.5,29.92,SE,130,0.0,0.0,94,0.01,,---,0.01,VWS V14.01,2013-09-11 08:58:00,
2013-09-11 03:03:00,49.1,47.5,29.92,SE,130,0.0,0.0,94,0.01,,---,0.01,VWS V14.01,2013-09-11 09:03:00,
2013-09-11 03:08:00,49.0,47.3,29.92,SE,130,0.0,0.0,94,0.01,,---,0.01,VWS V14.01,2013-09-11 09:08:00,
2013-09-11 03:13:00,49.0,47.3,29.92,SE,130,0.0,0.0,94,0.02,,---,0.02,VWS V14.01,2013-09-11 09:13:00,
2013-09-11 03:18:00,49.0,47.3,29.93,SE,130,0.0,0.0,94,0.02,,---,0.02,VWS V14.01,2013-09-11 09:18:00,
2013-09-11 03:23:00,49.0,47.3,29.93,SE,130,0.0,0.0,94,0.02,,---,0.02,VWS V14.01,2013-09-11 09:23:00,
2013-09-11 03:28:00,49.0,47.3,29.92,SE,130,0.0,0.0,94,0.02,,---,0.02,VWS V14.01,2013-09-11 09:28:00,
2013-09-11 03:33:00,48.9,47.2,29.93,SE,130,0.0,0.0,94,0.02,,---,0.02,VWS V14.01,2013-09-11 09:33:00,
2013-09-11 03:38:00,48.9,47.2,29.92,SE,130,0.0,0.0,94,0.01,,---,0.02,VWS V14.01,2013-09-11 09:38:00,
2013-09-11 03:43:00,48.9,47.2,29.92,SE,130,0.0,0.0,94,0.01,,---,0.02,VWS V14.01,2013-09-11 09:43:00,
2013-09-11 03:48:00,48.8,47.2,29.92,SE,130,0.0,0.0,94,0.01,,---,0.02,VWS V14.01,2013-09-11 09:48:00,
2013-09-11 03:53:00,48.8,47.4,29.92,SE,130,0.0,0.0,95,0.01,,---,0.02,VWS V14.01,2013-09-11 09:53:00,
2013-09-11 03:58:00,48.8,47.4,29.92,SE,130,0.0,0.0,95,0.01,,---,0.02,VWS V14.01,2013-09-11 09:58:00,
2013-09-11 04:03:00,48.8,47.4,29.91,SE,130,0.0,0.0,95,0.01,,---,0.02,VWS V14.01,2013-09-11 10:03:00,
2013-09-11 04:08:00,48.7,47.3,29.91,SE,130,0.0,2.0,95,0.01,,---,0.02,VWS V14.01,2013-09-11 10:08:00,
2013-09-11 04:13:00,48.7,47.3,29.91,SE,130,0.0,0.0,95,0.00,,---,0.02,VWS V14.01,2013-09-11 10:13:00,
2013-09-11 04:18:00,48.7,47.3,29.91,SE,130,0.0,0.0,95,0.00,,---,0.02,VWS V14.01,2013-09-11 10:18:00,
2013-09-11 04:23:00,48.6,47.2,29.91,SE,130,0.0,0.0,95,0.00,,---,0.02,VWS V14.01,2013-09-11 10:23:00,
2013-09-11 04:28:00,48.5,47.1,29.92,SE,130,0.0,0.0,95,0.00,,---,0.02,VWS V14.01,2013-09-11 10:28:00,
2013-09-11 04:33:00,48.5,47.1,29.92,SE,130,2.0,2.0,95,0.00,,---,0.02,VWS V14.01,2013-09-11 10:33:00,
2013-09-11 04:38:00,48.4,47.0,29.92,SE,130,0.0,0.0,95,0.00,,---,0.02,VWS V14.01,2013-09-11 10:38:00,
2013-09-11 04:43:00,48.4,47.0,29.92,SE,130,0.0,0.0,95,0.00,,---,0.02,VWS V14.01,2013-09-11 10:43:00,
2013-09-11 04:48:00,48.4,47.0,29.92,SE,130,0.0,0.0,95,0.00,,---,0.02,VWS V14.01,2013-09-11 10:48:00,
2013-09-11 04:53:00,48.3,46.9,29.92,SE,130,0.0,0.0,95,0.00,,---,0.02,VWS V14.01,2013-09-11 10:53:00,
2013-09-11 04:58:00,48.3,46.9,29.92,SE,130,0.0,0.0,95,0.00,,---,0.02,VWS V14.01,2013-09-11 10:58:00,
2013-09-11 05:03:00,48.3,46.9,29.92,SE,130,0.0,0.0,95,0.00,,---,0.02,VWS V14.01,2013-09-11 11:03:00,
2013-09-11 05:08:00,48.3,46.9,29.92,SE,130,2.0,2.0,95,0.00,,---,0.02,VWS V14.01,2013-09-11 11:08:00,
2013-09-11 05:13:00,48.3,46.9,29.92,SE,130,0.0,0.0,95,0.00,,---,0.02,VWS V14.01,2013-09-11 11:13:00,
2013-09-11 05:18:00,48.3,46.9,29.92,SE,130,0.0,0.0,95,0.00,,---,0.02,VWS V14.01,2013-09-11 11:18:00,
2013-09-11 05:23:00,48.3,46.9,29.92,SE,130,0.0,0.0,95,0.00,,---,0.02,VWS V14.01,2013-09-11 11:23:00,
2013-09-11 05:28:00,48.4,47.3,29.92,SE,130,0.0,0.0,96,0.00,,---,0.02,VWS V14.01,2013-09-11 11:28:00,
2013-09-11 05:33:00,48.4,47.3,29.92,SE,130,0.0,0.0,96,0.00,,---,0.02,VWS V14.01,2013-09-11 11:33:00,
2013-09-11 05:39:00,48.5,47.4,29.92,SE,130,0.0,0.0,96,0.00,,---,0.02,VWS V14.01,2013-09-11 11:39:00,
2013-09-11 05:44:00,48.4,47.3,29.92,SE,130,0.0,0.0,96,0.00,,---,0.02,VWS V14.01,2013-09-11 11:44:00,
2013-09-11 05:49:00,48.4,47.3,29.92,SE,130,0.0,0.0,96,0.00,,---,0.02,VWS V14.01,2013-09-11 11:49:00,
2013-09-11 05:54:00,48.4,47.3,29.93,SE,130,0.0,0.0,96,0.01,,---,0.03,VWS V14.01,2013-09-11 11:54:00,
2013-09-11 05:59:00,48.4,47.3,29.92,SE,130,0.0,0.0,96,0.01,,---,0.03,VWS V14.01,2013-09-11 11:59:00,
2013-09-11 06:04:00,48.3,47.2,29.92,SE,130,0.0,0.0,96,0.01,,---,0.03,VWS V14.01,2013-09-11 12:04:00,
2013-09-11 06:09:00,48.3,47.2,29.93,SE,130,0.0,0.0,96,0.01,,---,0.03,VWS V14.01,2013-09-11 12:09:00,
2013-09-11 06:14:00,48.2,47.1,29.93,SE,130,0.0,0.0,96,0.01,,---,0.03,VWS V14.01,2013-09-11 12:14:00,
2013-09-11 06:19:00,48.2,47.1,29.93,SE,130,0.0,0.0,96,0.01,,---,0.03,VWS V14.01,2013-09-11 12:19:00,
2013-09-11 06:24:00,48.1,47.0,29.93,SE,130,0.0,0.0,96,0.01,,---,0.03,VWS V14.01,2013-09-11 12:24:00,
2013-09-11 06:29:00,48.2,47.1,29.93,SE,130,0.0,0.0,96,0.01,,---,0.03,VWS V14.01,2013-09-11 12:29:00,
2013-09-11 06:34:00,48.2,47.1,29.93,SE,130,0.0,0.0,96,0.01,,---,0.03,VWS V14.01,2013-09-11 12:34:00,
2013-09-11 06:39:00,48.2,47.1,29.93,SE,130,0.0,0.0,96,0.01,,---,0.03,VWS V14.01,2013-09-11 12:39:00,
2013-09-11 06:44:00,48.2,47.1,29.93,SE,130,0.0,0.0,96,0.01,,---,0.03,VWS V14.01,2013-09-11 12:44:00,
2013-09-11 06:49:00,48.2,47.1,29.93,ENE,70,0.0,0.0,96,0.01,,---,0.03,VWS V14.01,2013-09-11 12:49:00,
2013-09-11 06:54:00,48.1,47.0,29.93,ENE,70,0.0,0.0,96,0.00,,---,0.03,VWS V14.01,2013-09-11 12:54:00,
2013-09-11 06:59:00,48.0,46.9,29.93,ENE,70,3.0,3.0,96,0.00,,---,0.03,VWS V14.01,2013-09-11 12:59:00,
2013-09-11 07:04:00,47.9,46.8,29.93,ENE,69,0.0,0.0,96,0.00,,---,0.03,VWS V14.01,2013-09-11 13:04:00,
2013-09-11 07:09:00,47.8,46.7,29.93,ENE,70,0.0,0.0,96,0.00,,---,0.03,VWS V14.01,2013-09-11 13:09:00,
2013-09-11 07:14:00,47.6,46.5,29.93,SE,146,0.0,2.0,96,0.00,,---,0.03,VWS V14.01,2013-09-11 13:14:00,
2013-09-11 07:19:00,47.6,46.5,29.93,SE,146,0.0,0.0,96,0.00,,---,0.03,VWS V14.01,2013-09-11 13:19:00,
2013-09-11 07:24:00,47.6,46.5,29.93,SE,146,0.0,0.0,96,0.00,,---,0.03,VWS V14.01,2013-09-11 13:24:00,
2013-09-11 07:29:00,47.8,46.7,29.94,SE,146,0.0,0.0,96,0.00,,---,0.03,VWS V14.01,2013-09-11 13:29:00,
2013-09-11 07:34:00,48.0,46.9,29.94,SE,146,0.0,0.0,96,0.00,,---,0.03,VWS V14.01,2013-09-11 13:34:00,
2013-09-11 07:39:00,48.1,47.0,29.94,SE,146,0.0,0.0,96,0.00,,---,0.03,VWS V14.01,2013-09-11 13:39:00,
2013-09-11 07:44:00,48.2,47.1,29.94,SE,146,0.0,0.0,96,0.00,,---,0.03,VWS V14.01,2013-09-11 13:44:00,
2013-09-11 07:49:00,48.3,47.2,29.94,SE,146,0.0,0.0,96,0.00,,---,0.03,VWS V14.01,2013-09-11 13:49:00,
2013-09-11 07:54:00,48.4,47.3,29.94,SE,146,0.0,0.0,96,0.00,,---,0.03,VWS V14.01,2013-09-11 13:54:00,
2013-09-11 07:59:00,48.5,47.4,29.94,SE,146,0.0,0.0,96,0.00,,---,0.03,VWS V14.01,2013-09-11 13:59:00,
2013-09-11 08:04:00,48.6,47.5,29.94,SE,146,0.0,0.0,96,0.00,,---,0.03,VWS V14.01,2013-09-11 14:04:00,
2013-09-11 08:09:00,48.7,47.6,29.94,SE,146,0.0,0.0,96,0.00,,---,0.03,VWS V14.01,2013-09-11 14:09:00,
2013-09-11 08:14:00,48.8,48.0,29.94,SE,146,0.0,0.0,97,0.00,,---,0.03,VWS V14.01,2013-09-11 14:14:00,
2013-09-11 08:19:00,49.2,48.4,29.94,SE,146,0.0,0.0,97,0.00,,---,0.03,VWS V14.01,2013-09-11 14:19:00,
2013-09-11 08:24:00,49.4,48.3,29.94,SE,146,0.0,0.0,96,0.00,,---,0.03,VWS V14.01,2013-09-11 14:24:00,
2013-09-11 08:29:00,49.7,48.6,29.94,SE,146,0.0,0.0,96,0.00,,---,0.03,VWS V14.01,2013-09-11 14:29:00,
2013-09-11 08:34:00,49.6,48.5,29.94,SE,146,0.0,2.0,96,0.00,,---,0.03,VWS V14.01,2013-09-11 14:34:00,
2013-09-11 08:39:00,49.8,48.7,29.94,SE,146,1.0,2.0,96,0.00,,---,0.03,VWS V14.01,2013-09-11 14:39:00,
2013-09-11 08:44:00,49.8,48.7,29.94,SE,146,0.0,0.0,96,0.00,,---,0.03,VWS V14.01,2013-09-11 14:44:00,
2013-09-11 08:49:00,50.0,48.9,29.94,SE,146,0.0,0.0,96,0.00,,---,0.03,VWS V14.01,2013-09-11 14:49:00,
2013-09-11 08:54:00,50.1,49.0,29.94,SE,146,0.0,0.0,96,0.00,,---,0.03,VWS V14.01,2013-09-11 14:54:00,
2013-09-11 08:59:00,50.4,49.3,29.94,SE,146,0.0,0.0,96,0.00,,---,0.03,VWS V14.01,2013-09-11 14:59:00,
2013-09-11 09:04:00,50.3,48.9,29.94,SE,146,0.0,0.0,95,0.00,,---,0.03,VWS V14.01,2013-09-11 15:04:00,
2013-09-11 09:09:00,50.5,49.1,29.94,SE,146,0.0,0.0,95,0.00,,---,0.03,VWS V14.01,2013-09-11 15:09:00,
2013-09-11 09:14:00,51.0,49.6,29.94,SE,146,0.0,0.0,95,0.00,,---,0.03,VWS V14.01,2013-09-11 15:14:00,
2013-09-11 09:19:00,51.1,49.2,29.94,SE,146,0.0,0.0,93,0.00,,---,0.03,VWS V14.01,2013-09-11 15:19:00,
2013-09-11 09:24:00,51.3,49.1,29.94,SE,146,0.0,0.0,92,0.00,,---,0.03,VWS V14.01,2013-09-11 15:24:00,
2013-09-11 09:29:00,51.4,49.2,29.94,SE,146,0.0,0.0,92,0.00,,---,0.03,VWS V14.01,2013-09-11 15:29:00,
2013-09-11 09:34:00,52.1,50.1,29.94,SE,146,0.0,0.0,93,0.00,,---,0.03,VWS V14.01,2013-09-11 15:34:00,
2013-09-11 09:39:00,52.7,50.2,29.94,SE,146,0.0,0.0,91,0.00,,---,0.03,VWS V14.01,2013-09-11 15:39:00,
2013-09-11 09:44:00,53.1,50.5,29.94,SE,146,0.0,0.0,91,0.00,,---,0.03,VWS V14.01,2013-09-11 15:44:00,
2013-09-11 09:49:00,53.0,49.2,29.94,SE,146,0.0,0.0,87,0.00,,---,0.03,VWS V14.01,2013-09-11 15:49:00,
2013-09-11 09:54:00,53.5,50.6,29.94,SE,146,0.0,0.0,90,0.00,,---,0.03,VWS V14.01,2013-09-11 15:54:00,
2013-09-11 09:59:00,54.0,50.8,29.94,SE,146,0.0,0.0,89,0.00,,---,0.03,VWS V14.01,2013-09-11 15:59:00,
2013-09-11 10:04:00,53.7,49.6,29.94,SE,146,0.0,0.0,86,0.00,,---,0.03,VWS V14.01,2013-09-11 16:04:00,
2013-09-11 10:09:00,53.8,50.0,29.94,SE,146,0.0,0.0,87,0.00,,---,0.03,VWS V14.01,2013-09-11 16:09:00,
2013-09-11 10:14:00,53.7,49.6,29.94,SE,146,3.0,3.0,86,0.00,,---,0.03,VWS V14.01,2013-09-11 16:14:00,
2013-09-11 10:19:00,54.2,50.1,29.94,SE,146,1.0,2.0,86,0.00,,---,0.03,VWS V14.01,2013-09-11 16:19:00,
2013-09-11 10:24:00,54.3,49.6,29.94,SE,146,0.0,2.0,84,0.00,,---,0.03,VWS V14.01,2013-09-11 16:24:00,
2013-09-11 10:29:00,54.5,50.1,29.94,SE,146,0.0,0.0,85,0.00,,---,0.03,VWS V14.01,2013-09-11 16:29:00,
2013-09-11 10:34:00,54.5,50.1,29.94,SE,146,0.0,0.0,85,0.00,,---,0.03,VWS V14.01,2013-09-11 16:34:00,
2013-09-11 10:39:00,54.6,49.9,29.94,SE,146,0.0,1.0,84,0.00,,---,0.03,VWS V14.01,2013-09-11 16:39:00,
2013-09-11 10:45:00,54.7,50.0,29.95,SE,146,0.0,0.0,84,0.00,,---,0.03,VWS V14.01,2013-09-11 16:45:00,
2013-09-11 10:50:00,55.0,49.3,29.94,ESE,115,3.0,3.0,81,0.00,,---,0.03,VWS V14.01,2013-09-11 16:50:00,
2013-09-11 10:55:00,55.3,48.9,29.94,East,83,1.0,1.0,79,0.00,,---,0.03,VWS V14.01,2013-09-11 16:55:00,
2013-09-11 11:00:00,55.4,49.0,29.94,East,83,5.0,5.0,79,0.00,,---,0.03,VWS V14.01,2013-09-11 17:00:00,
2013-09-11 11:05:00,56.2,49.8,29.94,ENE,74,0.0,2.0,79,0.00,,---,0.03,VWS V14.01,2013-09-11 17:05:00,
2013-09-11 11:10:00,56.8,49.3,29.94,ENE,75,2.0,3.0,76,0.00,,---,0.03,VWS V14.01,2013-09-11 17:10:00,
2013-09-11 11:15:00,57.5,49.7,29.94,ESE,114,0.0,1.0,75,0.00,,---,0.03,VWS V14.01,2013-09-11 17:15:00,
2013-09-11 11:20:00,57.2,49.0,29.94,SSE,147,1.0,5.0,74,0.00,,---,0.03,VWS V14.01,2013-09-11 17:20:00,
2013-09-11 11:25:00,58.2,51.0,29.94,SSE,163,4.0,4.0,77,0.00,,---,0.03,VWS V14.01,2013-09-11 17:25:00,
2013-09-11 11:30:00,57.4,48.8,29.94,SSE,163,2.0,2.0,73,0.00,,---,0.03,VWS V14.01,2013-09-11 17:30:00,
2013-09-11 11:35:00,57.1,48.9,29.94,SSE,163,3.0,3.0,74,0.00,,---,0.03,VWS V14.01,2013-09-11 17:35:00,
2013-09-11 11:40:00,57.3,49.1,29.93,SSE,163,4.0,4.0,74,0.00,,---,0.03,VWS V14.01,2013-09-11 17:40:00,
2013-09-11 11:45:00,57.3,49.1,29.93,SSE,163,2.0,4.0,74,0.00,,---,0.03,VWS V14.01,2013-09-11 17:45:00,
2013-09-11 11:50:00,57.5,49.3,29.93,SSE,163,3.0,4.0,74,0.00,,---,0.03,VWS V14.01,2013-09-11 17:50:00,
2013-09-11 11:55:00,57.6,49.4,29.93,SSE,161,4.0,7.0,74,0.00,,---,0.03,VWS V14.01,2013-09-11 17:55:00,
2013-09-11 12:00:00,58.4,49.8,29.93,South,169,5.0,6.0,73,0.00,,---,0.03,VWS V14.01,2013-09-11 18:00:00,
2013-09-11 12:05:00,58.2,49.6,29.93,South,172,3.0,4.0,73,0.00,,---,0.03,VWS V14.01,2013-09-11 18:05:00,
2013-09-11 12:10:00,59.5,50.5,29.93,South,169,5.0,7.0,72,0.00,,---,0.03,VWS V14.01,2013-09-11 18:10:00,
2013-09-11 12:15:00,59.2,49.4,29.93,SSE,147,3.0,3.0,70,0.00,,---,0.03,VWS V14.01,2013-09-11 18:15:00,
2013-09-11 12:20:00,59.9,49.7,29.93,SE,129,6.0,6.0,69,0.00,,---,0.03,VWS V14.01,2013-09-11 18:20:00,
2013-09-11 12:25:00,58.8,47.9,29.93,East,91,0.0,3.0,67,0.00,,---,0.03,VWS V14.01,2013-09-11 18:25:00,
2013-09-11 12:30:00,59.5,49.7,29.93,SE,126,5.0,6.0,70,0.00,,---,0.03,VWS V14.01,2013-09-11 18:30:00,
2013-09-11 12:35:00,60.1,48.7,29.92,ESE,119,7.0,7.0,66,0.00,,---,0.03,VWS V14.01,2013-09-11 18:35:00,
2013-09-11 12:40:00,60.0,47.8,29.92,SE,145,7.0,7.0,64,0.00,,---,0.03,VWS V14.01,2013-09-11 18:40:00,
2013-09-11 12:45:00,59.8,47.6,29.92,SE,146,9.0,9.0,64,0.00,,---,0.03,VWS V14.01,2013-09-11 18:45:00,
2013-09-11 12:50:00,59.4,48.5,29.92,SSE,157,7.0,8.0,67,0.00,,---,0.03,VWS V14.01,2013-09-11 18:50:00,
2013-09-11 12:55:00,59.1,47.4,29.92,SSE,149,6.0,9.0,65,0.00,,---,0.03,VWS V14.01,2013-09-11 18:55:00,
2013-09-11 13:00:00,59.0,48.1,29.92,SE,139,5.0,6.0,67,0.00,,---,0.03,VWS V14.01,2013-09-11 19:00:00,
2013-09-11 13:05:00,59.3,48.4,29.92,SSE,161,3.0,5.0,67,0.00,,---,0.03,VWS V14.01,2013-09-11 19:05:00,
2013-09-11 13:10:00,59.6,48.2,29.92,ESE,121,5.0,5.0,66,0.00,,---,0.03,VWS V14.01,2013-09-11 19:10:00,
2013-09-11 13:15:00,59.8,48.8,29.92,ESE,105,2.0,2.0,67,0.00,,---,0.03,VWS V14.01,2013-09-11 19:15:00,
2013-09-11 13:20:00,60.5,47.9,29.91,ESE,102,7.0,7.0,63,0.00,,---,0.03,VWS V14.01,2013-09-11 19:20:00,
2013-09-11 13:25:00,61.8,48.2,29.91,NE,49,3.0,4.0,61,0.00,,---,0.03,VWS V14.01,2013-09-11 19:25:00,
2013-09-11 13:30:00,61.7,47.2,29.91,ESE,122,1.0,5.0,59,0.00,,---,0.03,VWS V14.01,2013-09-11 19:30:00,
2013-09-11 13:35:00,62.8,48.7,29.91,SSW,192,4.0,4.0,60,0.00,,---,0.03,VWS V14.01,2013-09-11 19:35:00,
2013-09-11 13:40:00,63.5,50.3,29.90,SSW,213,8.0,8.0,62,0.00,,---,0.03,VWS V14.01,2013-09-11 19:40:00,
2013-09-11 13:45:00,63.1,49.0,29.90,SW,226,5.0,8.0,60,0.00,,---,0.03,VWS V14.01,2013-09-11 19:45:00,
2013-09-11 13:50:00,61.4,47.4,29.90,SW,215,3.0,5.0,60,0.00,,---,0.03,VWS V14.01,2013-09-11 19:50:00,
2013-09-11 13:55:00,61.4,48.7,29.90,SW,215,4.0,6.0,63,0.00,,---,0.03,VWS V14.01,2013-09-11 19:55:00,
2013-09-11 14:00:00,62.0,47.5,29.90,SW,223,4.0,5.0,59,0.00,,---,0.03,VWS V14.01,2013-09-11 20:00:00,
2013-09-11 14:05:00,62.2,48.6,29.90,WSW,244,5.0,5.0,61,0.00,,---,0.03,VWS V14.01,2013-09-11 20:05:00,
2013-09-11 14:10:00,63.5,49.4,29.90,WSW,244,5.0,8.0,60,0.00,,---,0.03,VWS V14.01,2013-09-11 20:10:00,
2013-09-11 14:15:00,64.3,49.2,29.90,SW,236,6.0,7.0,58,0.00,,---,0.03,VWS V14.01,2013-09-11 20:15:00,
2013-09-11 14:20:00,62.6,47.2,29.90,SW,227,0.0,0.0,57,0.00,,---,0.03,VWS V14.01,2013-09-11 20:20:00,
2013-09-11 14:25:00,62.7,47.7,29.90,SW,227,1.0,3.0,58,0.00,,---,0.03,VWS V14.01,2013-09-11 20:25:00,
2013-09-11 14:30:00,62.4,47.5,29.90,SW,227,6.0,6.0,58,0.00,,---,0.03,VWS V14.01,2013-09-11 20:30:00,
2013-09-11 14:35:00,62.3,48.2,29.90,SW,225,3.0,3.0,60,0.00,,---,0.03,VWS V14.01,2013-09-11 20:35:00,
2013-09-11 14:40:00,62.4,47.0,29.89,SW,225,0.0,0.0,57,0.00,,---,0.03,VWS V14.01,2013-09-11 20:40:00,
2013-09-11 14:46:00,63.1,49.9,29.89,SW,225,6.0,6.0,62,0.00,,---,0.03,VWS V14.01,2013-09-11 20:46:00,
2013-09-11 14:51:00,62.7,47.3,29.89,South,177,2.0,7.0,57,0.00,,---,0.03,VWS V14.01,2013-09-11 20:51:00,
2013-09-11 14:56:00,62.9,47.9,29.89,SSW,202,4.0,4.0,58,0.00,,---,0.03,VWS V14.01,2013-09-11 20:56:00,
2013-09-11 15:01:00,62.9,48.4,29.90,South,178,11.0,11.0,59,0.00,,---,0.03,VWS V14.01,2013-09-11 21:01:00,
2013-09-11 15:06:00,61.9,48.3,29.90,South,171,13.0,13.0,61,0.00,,---,0.03,VWS V14.01,2013-09-11 21:06:00,
2013-09-11 15:11:00,61.2,47.7,29.90,South,169,8.0,9.0,61,0.00,,---,0.03,VWS V14.01,2013-09-11 21:11:00,
2013-09-11 15:16:00,60.0,49.8,29.90,ESE,111,5.0,10.0,69,0.00,,---,0.03,VWS V14.01,2013-09-11 21:16:00,
2013-09-11 15:21:00,58.9,49.5,29.90,ESE,118,8.0,9.0,71,0.00,,---,0.03,VWS V14.01,2013-09-11 21:21:00,
2013-09-11 15:26:00,58.6,47.7,29.90,East,88,8.0,8.0,67,0.00,,---,0.03,VWS V14.01,2013-09-11 21:26:00,
2013-09-11 15:31:00,58.8,47.9,29.90,East,100,7.0,11.0,67,0.00,,---,0.03,VWS V14.01,2013-09-11 21:31:00,
2013-09-11 15:36:00,59.1,48.2,29.90,East,101,2.0,6.0,67,0.00,,---,0.03,VWS V14.01,2013-09-11 21:36:00,
2013-09-11 15:41:00,61.0,51.2,29.90,SE,135,7.0,7.0,70,0.00,,---,0.03,VWS V14.01,2013-09-11 21:41:00,
2013-09-11 15:46:00,62.9,50.1,29.90,East,91,7.0,10.0,63,0.00,,---,0.03,VWS V14.01,2013-09-11 21:46:00,
2013-09-11 15:51:00,63.3,49.6,29.90,East,98,8.0,11.0,61,0.00,,---,0.03,VWS V14.01,2013-09-11 21:51:00,
2013-09-11 15:56:00,62.8,47.8,29.89,SE,132,5.0,7.0,58,0.00,,---,0.03,VWS V14.01,2013-09-11 21:56:00,
2013-09-11 16:01:00,63.6,48.1,29.89,SE,142,5.0,7.0,57,0.00,,---,0.03,VWS V14.01,2013-09-11 22:01:00,
2013-09-11 16:06:00,62.3,47.8,29.89,SE,136,3.0,4.0,59,0.00,,---,0.03,VWS V14.01,2013-09-11 22:06:00,
2013-09-11 16:11:00,61.8,46.0,29.89,East,95,3.0,3.0,56,0.00,,---,0.03,VWS V14.01,2013-09-11 22:11:00,
2013-09-11 16:16:00,63.2,46.8,29.89,SE,143,7.0,8.0,55,0.00,,---,0.03,VWS V14.01,2013-09-11 22:16:00,
2013-09-11 16:21:00,64.9,46.9,29.89,ESE,113,3.0,8.0,52,0.00,,---,0.03,VWS V14.01,2013-09-11 22:21:00,
2013-09-11 16:26:00,64.4,44.3,29.88,SE,136,5.0,12.0,48,0.00,,---,0.03,VWS V14.01,2013-09-11 22:26:00,
2013-09-11 16:31:00,65.2,45.0,29.89,ESE,104,4.0,5.0,48,0.00,,---,0.03,VWS V14.01,2013-09-11 22:31:00,
2013-09-11 16:36:00,65.3,44.6,29.88,East,96,6.0,8.0,47,0.00,,---,0.03,VWS V14.01,2013-09-11 22:36:00,
2013-09-11 16:41:00,65.2,45.6,29.88,SE,138,7.0,7.0,49,0.00,,---,0.03,VWS V14.01,2013-09-11 22:41:00,
2013-09-11 16:46:00,65.2,43.9,29.88,SE,134,5.0,6.0,46,0.00,,---,0.03,VWS V14.01,2013-09-11 22:46:00,
2013-09-11 16:51:00,64.2,44.1,29.88,ESE,118,5.0,5.0,48,0.00,,---,0.03,VWS V14.01,2013-09-11 22:51:00,
2013-09-11 16:56:00,63.3,44.4,29.88,SSE,153,4.0,4.0,50,0.00,,---,0.03,VWS V14.01,2013-09-11 22:56:00,
2013-09-11 17:01:00,63.2,44.3,29.88,South,169,4.0,4.0,50,0.00,,---,0.03,VWS V14.01,2013-09-11 23:01:00,
2013-09-11 17:06:00,62.6,45.2,29.88,SSE,156,4.0,4.0,53,0.00,,---,0.03,VWS V14.01,2013-09-11 23:06:00,
2013-09-11 17:11:00,62.4,45.5,29.88,South,186,4.0,4.0,54,0.00,,---,0.03,VWS V14.01,2013-09-11 23:11:00,
2013-09-11 17:16:00,62.5,45.2,29.88,SSW,207,7.0,7.0,53,0.00,,---,0.03,VWS V14.01,2013-09-11 23:16:00,
2013-09-11 17:21:00,62.9,48.4,29.88,SW,214,8.0,9.0,59,0.00,,---,0.03,VWS V14.01,2013-09-11 23:21:00,
2013-09-11 17:26:00,62.2,48.6,29.87,SW,222,8.0,8.0,61,0.00,,---,0.03,VWS V14.01,2013-09-11 23:26:00,
2013-09-11 17:31:00,62.1,47.2,29.87,WSW,241,6.0,8.0,58,0.00,,---,0.03,VWS V14.01,2013-09-11 23:31:00,
2013-09-11 17:36:00,62.0,47.5,29.87,WSW,242,6.0,6.0,59,0.00,,---,0.03,VWS V14.01,2013-09-11 23:36:00,
2013-09-11 17:41:00,62.1,49.8,29.87,SW,225,8.0,8.0,64,0.00,,---,0.03,VWS V14.01,2013-09-11 23:41:00,
2013-09-11 17:46:00,62.9,48.4,29.87,SW,224,4.0,4.0,59,0.00,,---,0.03,VWS V14.01,2013-09-11 23:46:00,
2013-09-11 17:51:00,63.0,50.2,29.87,WSW,246,7.0,8.0,63,0.00,,---,0.03,VWS V14.01,2013-09-11 23:51:00,
2013-09-11 17:56:00,63.5,49.8,29.87,WSW,254,13.0,14.0,61,0.00,,---,0.03,VWS V14.01,2013-09-11 23:56:00,
2013-09-11 18:01:00,63.2,50.4,29.87,SW,223,11.0,14.0,63,0.00,,---,0.03,VWS V14.01,2013-09-12 00:01:00,
2013-09-11 18:06:00,62.7,49.9,29.87,SW,224,14.0,17.0,63,0.00,,---,0.03,VWS V14.01,2013-09-12 00:06:00,
2013-09-11 18:11:00,61.8,49.9,29.87,SW,225,16.0,17.0,65,0.00,,---,0.03,VWS V14.01,2013-09-12 00:11:00,
2013-09-11 18:16:00,61.1,49.7,29.87,WSW,250,14.0,19.0,66,0.00,,---,0.03,VWS V14.01,2013-09-12 00:16:00,
2013-09-11 18:21:00,60.4,49.4,29.87,WSW,238,11.0,17.0,67,0.00,,---,0.03,VWS V14.01,2013-09-12 00:21:00,
2013-09-11 18:26:00,59.8,49.6,29.87,WSW,244,17.0,17.0,69,0.00,,---,0.03,VWS V14.01,2013-09-12 00:26:00,
2013-09-11 18:31:00,59.2,49.8,29.87,WSW,252,14.0,14.0,71,0.00,,---,0.03,VWS V14.01,2013-09-12 00:31:00,
2013-09-11 18:37:00,58.6,50.0,29.87,WSW,251,12.0,12.0,73,0.00,,---,0.03,VWS V14.01,2013-09-12 00:37:00,
2013-09-11 18:42:00,58.0,49.8,29.87,SW,214,13.0,15.0,74,0.00,,---,0.03,VWS V14.01,2013-09-12 00:42:00,
2013-09-11 18:47:00,57.6,49.8,29.87,SW,235,13.0,16.0,75,0.00,,---,0.03,VWS V14.01,2013-09-12 00:47:00,
2013-09-11 18:52:00,57.2,49.7,29.87,WSW,252,12.0,15.0,76,0.00,,---,0.03,VWS V14.01,2013-09-12 00:52:00,
2013-09-11 18:57:00,57.0,49.5,29.87,WSW,252,12.0,18.0,76,0.00,,---,0.03,VWS V14.01,2013-09-12 00:57:00,
2013-09-11 19:02:00,56.8,49.3,29.87,SW,214,12.0,12.0,76,0.00,,---,0.03,VWS V14.01,2013-09-12 01:02:00,
2013-09-11 19:07:00,56.7,49.2,29.87,SW,234,7.0,7.0,76,0.00,,---,0.03,VWS V14.01,2013-09-12 01:07:00,
2013-09-11 19:12:00,56.6,49.5,29.87,WSW,254,4.0,5.0,77,0.00,,---,0.03,VWS V14.01,2013-09-12 01:12:00,
2013-09-11 19:17:00,56.4,49.3,29.88,WSW,254,8.0,10.0,77,0.00,,---,0.03,VWS V14.01,2013-09-12 01:17:00,
2013-09-11 19:22:00,56.3,49.2,29.88,WSW,253,11.0,15.0,77,0.00,,---,0.03,VWS V14.01,2013-09-12 01:22:00,
2013-09-11 19:27:00,56.2,49.1,29.88,WSW,248,6.0,8.0,77,0.00,,---,0.03,VWS V14.01,2013-09-12 01:27:00,
2013-09-11 19:32:00,56.1,49.0,29.89,WSW,257,5.0,8.0,77,0.00,,---,0.03,VWS V14.01,2013-09-12 01:32:00,
2013-09-11 19:37:00,56.2,48.8,29.89,WSW,250,6.0,7.0,76,0.00,,---,0.03,VWS V14.01,2013-09-12 01:37:00,
2013-09-11 19:42:00,56.2,48.8,29.90,SSW,196,3.0,4.0,76,0.00,,---,0.03,VWS V14.01,2013-09-12 01:42:00,
2013-09-11 19:47:00,56.2,48.8,29.90,SSW,196,1.0,1.0,76,0.00,,---,0.03,VWS V14.01,2013-09-12 01:47:00,
2013-09-11 19:52:00,56.1,49.0,29.90,SSW,196,0.0,0.0,77,0.00,,---,0.03,VWS V14.01,2013-09-12 01:52:00,
2013-09-11 19:57:00,56.0,48.5,29.90,West,273,1.0,8.0,76,0.00,,---,0.03,VWS V14.01,2013-09-12 01:57:00,
2013-09-11 20:02:00,55.9,48.5,29.90,West,274,2.0,6.0,76,0.00,,---,0.03,VWS V14.01,2013-09-12 02:02:00,
2013-09-11 20:07:00,55.9,48.8,29.91,West,274,3.0,5.0,77,0.00,,---,0.03,VWS V14.01,2013-09-12 02:07:00,
2013-09-11 20:12:00,55.9,49.8,29.91,South,181,8.0,8.0,80,0.00,,---,0.03,VWS V14.01,2013-09-12 02:12:00,
2013-09-11 20:17:00,55.6,49.9,29.92,SSE,160,0.0,1.0,81,0.01,,---,0.04,VWS V14.01,2013-09-12 02:17:00,
2013-09-11 20:22:00,55.2,49.8,29.92,SSE,160,2.0,3.0,82,0.01,,---,0.04,VWS V14.01,2013-09-12 02:22:00,
2013-09-11 20:27:00,54.8,49.7,29.92,SSE,160,2.0,2.0,83,0.01,,---,0.04,VWS V14.01,2013-09-12 02:27:00,
2013-09-11 20:32:00,54.0,49.6,29.92,NNE,14,5.0,5.0,85,0.01,,---,0.04,VWS V14.01,2013-09-12 02:32:00,
2013-09-11 20:37:00,53.6,49.8,29.92,NNE,14,7.0,7.0,87,0.01,,---,0.04,VWS V14.01,2013-09-12 02:37:00,
2013-09-11 20:42:00,53.3,49.5,29.92,NNE,14,6.0,6.0,87,0.01,,---,0.04,VWS V14.01,2013-09-12 02:42:00,
2013-09-11 20:47:00,53.2,49.7,29.92,North,11,5.0,6.0,88,0.02,,---,0.05,VWS V14.01,2013-09-12 02:47:00,
2013-09-11 20:52:00,53.1,49.7,29.93,NNW,335,9.0,9.0,88,0.02,,---,0.05,VWS V14.01,2013-09-12 02:52:00,
2013-09-11 20:57:00,53.0,49.5,29.93,NNW,329,6.0,7.0,88,0.02,,---,0.05,VWS V14.01,2013-09-12 02:57:00,
2013-09-11 21:02:00,53.0,49.5,29.93,NNW,334,7.0,7.0,88,0.02,,---,0.05,VWS V14.01,2013-09-12 03:02:00,
2013-09-11 21:07:00,52.7,48.3,29.93,NNW,345,10.0,13.0,85,0.02,,---,0.05,VWS V14.01,2013-09-12 03:07:00,
2013-09-11 21:12:00,52.5,48.1,29.93,North,350,8.0,9.0,85,0.02,,---,0.05,VWS V14.01,2013-09-12 03:12:00,
2013-09-11 21:17:00,52.5,48.1,29.93,North,349,0.0,0.0,85,0.01,,---,0.05,VWS V14.01,2013-09-12 03:17:00,
2013-09-11 21:22:00,52.6,49.2,29.93,North,349,0.0,0.0,88,0.01,,---,0.05,VWS V14.01,2013-09-12 03:22:00,
2013-09-11 21:27:00,52.6,49.2,29.93,North,349,0.0,0.0,88,0.01,,---,0.05,VWS V14.01,2013-09-12 03:27:00,
2013-09-11 21:32:00,52.4,49.0,29.94,North,349,0.0,2.0,88,0.01,,---,0.05,VWS V14.01,2013-09-12 03:32:00,
2013-09-11 21:37:00,52.2,48.8,29.93,North,349,0.0,0.0,88,0.01,,---,0.05,VWS V14.01,2013-09-12 03:37:00,
2013-09-11 21:42:00,52.1,48.7,29.93,North,349,0.0,0.0,88,0.01,,---,0.05,VWS V14.01,2013-09-12 03:42:00,
2013-09-11 21:47:00,51.9,48.5,29.93,North,349,0.0,0.0,88,0.00,,---,0.05,VWS V14.01,2013-09-12 03:47:00,
2013-09-11 21:52:00,51.6,48.2,29.93,North,349,0.0,1.0,88,0.00,,---,0.05,VWS V14.01,2013-09-12 03:52:00,
2013-09-11 21:57:00,51.4,48.0,29.93,North,349,0.0,1.0,88,0.00,,---,0.05,VWS V14.01,2013-09-12 03:57:00,
2013-09-11 22:01:00,51.3,47.6,29.93,North,349,0.0,0.0,87,0.00,,---,0.05,VWS V14.01,2013-09-12 04:01:00,
2013-09-11 22:03:00,51.1,47.4,29.94,North,349,0.0,0.0,87,0.00,,---,0.05,VWS V14.01,2013-09-12 04:03:00,
2013-09-11 22:08:00,50.7,47.3,29.94,North,349,4.0,4.0,88,0.00,,---,0.05,VWS V14.01,2013-09-12 04:08:00,
2013-09-11 22:13:00,50.6,47.5,29.94,North,349,4.0,4.0,89,0.00,,---,0.05,VWS V14.01,2013-09-12 04:13:00,
2013-09-11 22:18:00,50.5,47.4,29.93,North,349,4.0,4.0,89,0.00,,---,0.05,VWS V14.01,2013-09-12 04:18:00,
2013-09-11 22:23:00,50.3,47.5,29.94,North,349,0.0,1.0,90,0.00,,---,0.05,VWS V14.01,2013-09-12 04:23:00,
2013-09-11 22:28:00,50.1,47.3,29.94,North,349,3.0,3.0,90,0.00,,---,0.05,VWS V14.01,2013-09-12 04:28:00,
2013-09-11 22:33:00,50.0,47.5,29.94,North,349,0.0,0.0,91,0.00,,---,0.05,VWS V14.01,2013-09-12 04:33:00,
2013-09-11 22:38:00,49.9,47.4,29.94,North,349,0.0,1.0,91,0.00,,---,0.05,VWS V14.01,2013-09-12 04:38:00,
2013-09-11 22:43:00,49.8,47.3,29.94,North,349,0.0,0.0,91,0.00,,---,0.05,VWS V14.01,2013-09-12 04:43:00,
2013-09-11 22:48:00,49.8,47.6,29.94,North,349,0.0,0.0,92,0.00,,---,0.05,VWS V14.01,2013-09-12 04:48:00,
2013-09-11 22:53:00,49.8,47.6,29.94,North,349,0.0,0.0,92,0.00,,---,0.05,VWS V14.01,2013-09-12 04:53:00,
2013-09-11 22:58:00,49.8,47.6,29.94,North,349,0.0,0.0,92,0.00,,---,0.05,VWS V14.01,2013-09-12 04:58:00,
2013-09-11 23:03:00,49.8,47.6,29.94,North,349,0.0,0.0,92,0.00,,---,0.05,VWS V14.01,2013-09-12 05:03:00,
2013-09-11 23:08:00,49.6,47.4,29.94,North,349,0.0,0.0,92,0.00,,---,0.05,VWS V14.01,2013-09-12 05:08:00,
2013-09-11 23:13:00,49.6,47.4,29.95,North,349,2.0,2.0,92,0.00,,---,0.05,VWS V14.01,2013-09-12 05:13:00,
2013-09-11 23:18:00,49.4,46.9,29.94,North,349,0.0,0.0,91,0.00,,---,0.05,VWS V14.01,2013-09-12 05:18:00,
2013-09-11 23:23:00,49.3,47.1,29.94,North,349,0.0,0.0,92,0.00,,---,0.05,VWS V14.01,2013-09-12 05:23:00,
2013-09-11 23:28:00,49.3,47.1,29.95,North,349,2.0,3.0,92,0.00,,---,0.05,VWS V14.01,2013-09-12 05:28:00,
2013-09-11 23:33:00,49.2,47.0,29.94,North,349,1.0,3.0,92,0.00,,---,0.05,VWS V14.01,2013-09-12 05:33:00,
2013-09-11 23:38:00,49.2,47.0,29.94,North,349,0.0,0.0,92,0.00,,---,0.05,VWS V14.01,2013-09-12 05:38:00,
2013-09-11 23:43:00,49.0,46.8,29.94,North,349,0.0,0.0,92,0.00,,---,0.05,VWS V14.01,2013-09-12 05:43:00,
2013-09-11 23:48:00,49.0,46.8,29.95,North,349,0.0,0.0,92,0.00,,---,0.05,VWS V14.01,2013-09-12 05:48:00,
2013-09-11 23:53:00,48.8,46.6,29.95,North,349,0.0,0.0,92,0.00,,---,0.05,VWS V14.01,2013-09-12 05:53:00,
2013-09-11 23:58:00,48.7,46.8,29.95,North,349,0.0,0.0,93,0.00,,---,0.05,VWS V14.01,2013-09-12 05:58:00,